Time;durP1;ratioP1;P1;durP2;ratioP2;P2;SDS_P1;SDS_P2;PMS_P1;PMS_P2;Temp;Humidity;BMP_temperature;BMP_pressure;BME280_temperature;BME280_humidity;BME280_pressure;Samples;Min_cycle;Max_cycle;Signal;HPM_P1;HPM_P2
2021/05/25 00:00:08;;;;;;;5.88;2.97;;;;;;;17.91;70.39;101127.28;5033559;28;20053;-70
2021/05/25 00:02:34;;;;;;;6.30;2.42;;;;;;;17.93;70.47;101131.69;5025232;28;20049;-71
2021/05/25 00:05:00;;;;;;;4.25;2.20;;;;;;;17.53;70.01;101055.22;5003940;28;20072;-71
2021/05/25 00:07:25;;;;;;;6.15;2.92;;;;;;;17.98;69.95;101126.56;5016232;28;20487;-73
2021/05/25 00:09:51;;;;;;;4.82;2.58;;;;;;;17.76;70.54;101105.25;5013270;28;20026;-72
2021/05/25 00:12:16;;;;;;;6.60;2.67;;;;;;;17.90;70.36;101118.56;5014644;28;20041;-72
2021/05/25 00:14:42;;;;;;;5.63;2.67;;;;;;;17.85;70.69;101107.16;5012148;28;20030;-70
2021/05/25 00:17:08;;;;;;;8.23;3.00;;;;;;;17.89;70.59;101108.09;5013010;28;20495;-71
2021/05/25 00:19:33;;;;;;;4.18;2.53;;;;;;;17.68;71.27;101098.16;5016336;28;20032;-74
2021/05/25 00:21:59;;;;;;;6.75;3.22;;;;;;;17.63;72.12;101114.63;5013452;28;20026;-69
2021/05/25 00:24:26;;;;;;;4.60;2.90;;;;;;;17.57;71.80;101098.84;5013582;28;20460;-70
2021/05/25 00:26:51;;;;;;;4.85;2.55;;;;;;;17.61;71.94;101111.09;5014146;28;20041;-72
2021/05/25 00:29:17;;;;;;;3.80;2.85;;;;;;;17.55;72.28;101120.56;5016207;28;20025;-74
2021/05/25 00:31:42;;;;;;;5.22;3.10;;;;;;;17.23;72.69;101072.09;5013289;28;20033;-73
2021/05/25 00:34:08;;;;;;;5.38;2.85;;;;;;;17.48;72.55;101114.31;5015779;28;20476;-70
2021/05/25 00:36:36;;;;;;;4.75;2.83;;;;;;;17.38;73.12;101104.56;5016739;28;20104;-70
2021/05/25 00:39:04;;;;;;;5.07;3.08;;;;;;;17.50;72.31;101107.41;5014269;28;20040;-69
2021/05/25 00:41:30;;;;;;;6.65;2.90;;;;;;;17.46;72.37;101105.59;4981254;28;20069;-74
2021/05/25 00:43:55;;;;;;;5.60;2.67;;;;;;;17.40;72.64;101092.44;5014140;28;20462;-72
2021/05/25 00:46:21;;;;;;;3.80;2.78;;;;;;;17.58;72.40;101099.72;5012573;28;20088;-70
2021/05/25 00:48:46;;;;;;;5.07;2.85;;;;;;;17.57;72.10;101075.34;5013199;28;20022;-72
2021/05/25 00:51:12;;;;;;;7.68;3.28;;;;;;;17.71;71.82;101091.25;5015365;28;20022;-72
2021/05/25 00:53:37;;;;;;;3.92;2.63;;;;;;;17.75;71.51;101092.19;5016308;28;20447;-71
2021/05/25 00:56:03;;;;;;;6.05;3.50;;;;;;;17.72;71.87;101087.78;5032491;28;20025;-76
2021/05/25 00:58:29;;;;;;;7.53;3.00;;;;;;;17.80;71.25;101090.53;5032361;28;20468;-72
2021/05/25 01:00:55;;;;;;;4.40;2.85;;;;;;;17.02;71.40;100967.34;5032495;28;20702;-73
2021/05/25 01:03:22;;;;;;;6.72;3.17;;;;;;;17.73;71.36;101093.88;5014245;28;20033;-70
2021/05/25 01:05:49;;;;;;;7.38;3.13;;;;;;;17.53;70.97;101044.78;5032121;28;20032;-72
2021/05/25 01:08:14;;;;;;;6.82;3.30;;;;;;;17.34;71.25;101021.84;5014748;28;20048;-70
2021/05/25 01:10:45;;;;;;;5.00;2.65;;;;;;;17.61;71.56;101095.41;5031927;28;20476;-71
2021/05/25 01:13:19;;;;;;;7.53;2.95;;;;;;;17.56;71.58;101099.69;5031673;28;20488;-72
2021/05/25 01:15:45;;;;;;;4.72;2.83;;;;;;;17.49;71.81;101104.78;5031761;28;20431;-74
2021/05/25 01:18:11;;;;;;;7.07;2.70;;;;;;;17.33;72.04;101088.81;5014262;28;20140;-71
2021/05/25 01:20:39;;;;;;;4.60;3.00;;;;;;;17.35;72.07;101101.91;5014075;28;20021;-75
2021/05/25 01:23:07;;;;;;;4.55;2.80;;;;;;;17.25;72.67;101104.31;5032181;28;20033;-71
2021/05/25 01:25:33;;;;;;;5.80;3.20;;;;;;;17.20;72.72;101089.44;5014167;28;20416;-71
2021/05/25 01:28:04;;;;;;;6.20;3.10;;;;;;;17.22;72.19;101093.84;5031438;28;20094;-71
2021/05/25 01:30:36;;;;;;;5.68;2.72;;;;;;;17.27;72.63;101100.03;5014313;28;20041;-70
2021/05/25 01:33:03;;;;;;;5.93;2.97;;;;;;;17.11;73.63;101097.97;5031830;28;20026;-71
2021/05/25 01:35:29;;;;;;;9.05;3.28;;;;;;;17.03;73.97;101095.19;5032155;28;20403;-73
2021/05/25 01:37:56;;;;;;;5.13;3.28;;;;;;;17.00;73.87;101096.84;5031814;28;20085;-70
2021/05/25 01:40:22;;;;;;;4.80;3.30;;;;;;;16.87;74.67;101086.13;5031631;28;20021;-72
2021/05/25 01:42:48;;;;;;;9.30;3.40;;;;;;;16.28;74.59;100969.31;5031891;28;20022;-71
2021/05/25 01:45:19;;;;;;;7.22;3.42;;;;;;;17.04;74.44;101083.03;5030075;28;20025;-72
2021/05/25 01:47:46;;;;;;;5.60;3.05;;;;;;;17.09;74.29;101084.00;5013928;28;20432;-70
2021/05/25 01:50:14;;;;;;;4.57;3.22;;;;;;;17.14;73.72;101072.78;5031786;28;20038;-71
2021/05/25 01:52:53;;;;;;;6.22;3.10;;;;;;;17.17;73.86;101084.16;5031347;28;20056;-71
2021/05/25 01:55:32;;;;;;;5.30;3.22;;;;;;;16.94;73.81;101051.53;5031521;28;20061;-70
2021/05/25 01:58:09;;;;;;;5.95;3.60;;;;;;;17.06;73.70;101060.44;5031627;28;20128;-71
2021/05/25 02:00:37;;;;;;;5.63;3.08;;;;;;;17.30;73.14;101080.94;5031415;28;20030;-72
2021/05/25 02:03:03;;;;;;;7.63;3.35;;;;;;;17.31;72.86;101069.66;5013507;28;20033;-71
2021/05/25 02:05:29;;;;;;;8.15;3.40;;;;;;;17.28;72.82;101070.47;5031362;28;20108;-71
2021/05/25 02:07:55;;;;;;;6.30;3.20;;;;;;;17.19;73.16;101072.03;5031497;28;20097;-70
2021/05/25 02:10:27;;;;;;;6.25;3.38;;;;;;;17.13;73.42;101060.63;5031200;28;20029;-71
2021/05/25 02:12:55;;;;;;;6.38;3.17;;;;;;;17.09;73.87;101066.59;5018322;28;20056;-70
2021/05/25 02:15:21;;;;;;;5.05;3.55;;;;;;;16.87;74.35;101060.03;5031156;28;20440;-72
2021/05/25 02:17:46;;;;;;;5.72;3.47;;;;;;;16.74;74.55;101035.44;5030345;28;20076;-70
2021/05/25 02:20:12;;;;;;;6.45;3.50;;;;;;;16.85;74.76;101069.56;5030994;28;20480;-69
2021/05/25 02:22:38;;;;;;;6.95;3.60;;;;;;;16.63;74.53;101027.38;5030973;28;20021;-70
2021/05/25 02:25:04;;;;;;;6.68;4.05;;;;;;;16.44;74.86;101009.63;5031343;28;20045;-69
2021/05/25 02:27:30;;;;;;;6.28;3.65;;;;;;;16.55;75.23;101048.94;5030947;28;20079;-71
2021/05/25 02:29:55;;;;;;;7.03;3.75;;;;;;;16.44;75.96;101051.31;5031299;28;20491;-70
2021/05/25 02:32:21;;;;;;;10.48;3.90;;;;;;;16.60;75.50;101060.38;5012834;28;20491;-71
2021/05/25 02:34:47;;;;;;;5.70;3.88;;;;;;;16.48;75.53;101046.19;5030882;28;20033;-70
2021/05/25 02:37:12;;;;;;;5.55;4.00;;;;;;;16.17;75.59;101000.34;5031108;28;20475;-71
2021/05/25 02:39:38;;;;;;;5.05;3.90;;;;;;;16.56;75.23;101056.81;5033108;28;20036;-75
2021/05/25 02:42:04;;;;;;;4.90;3.78;;;;;;;16.46;75.63;101047.91;5034746;28;20088;-71
2021/05/25 02:44:30;;;;;;;6.65;4.00;;;;;;;16.49;75.12;101053.16;5035336;28;20104;-72
2021/05/25 02:46:55;;;;;;;5.75;3.78;;;;;;;16.46;75.56;101055.72;5034487;28;20112;-72
2021/05/25 02:49:21;;;;;;;8.55;3.92;;;;;;;16.41;75.66;101059.94;5033911;28;20024;-70
2021/05/25 02:51:46;;;;;;;6.38;3.88;;;;;;;16.41;75.88;101074.69;5033553;28;20033;-70
2021/05/25 02:54:12;;;;;;;7.07;3.90;;;;;;;16.41;76.29;101072.97;5035266;28;20116;-69
2021/05/25 02:56:37;;;;;;;5.43;3.72;;;;;;;16.29;76.28;101054.47;5033970;28;20034;-67
2021/05/25 02:59:03;;;;;;;6.18;4.60;;;;;;;16.46;76.24;101068.75;5034762;28;20064;-70
2021/05/25 03:01:29;;;;;;;7.25;4.05;;;;;;;16.32;76.52;101054.50;5034785;28;20112;-68
2021/05/25 03:03:54;;;;;;;7.25;4.00;;;;;;;16.33;76.63;101064.09;5034853;28;20484;-71
2021/05/25 03:06:20;;;;;;;6.68;4.10;;;;;;;16.35;76.73;101062.41;5033169;28;20389;-68
2021/05/25 03:08:45;;;;;;;7.47;4.22;;;;;;;16.45;76.48;101068.72;5034540;28;20108;-68
2021/05/25 03:11:11;;;;;;;5.53;4.40;;;;;;;16.47;76.41;101065.31;5034900;28;20530;-76
2021/05/25 03:13:36;;;;;;;7.80;3.95;;;;;;;16.28;76.52;101047.47;5034702;28;20053;-72
2021/05/25 03:16:02;;;;;;;8.00;4.05;;;;;;;16.46;76.46;101083.50;5033742;28;20540;-71
2021/05/25 03:18:27;;;;;;;7.93;4.45;;;;;;;16.54;76.12;101088.91;5034770;28;20130;-72
2021/05/25 03:20:53;;;;;;;6.43;4.30;;;;;;;16.25;76.26;101037.88;5032312;28;20511;-72
2021/05/25 03:23:19;;;;;;;10.32;4.68;;;;;;;16.28;77.05;101064.00;5016628;28;20033;-71
2021/05/25 03:25:47;;;;;;;8.27;4.18;;;;;;;16.38;76.97;101080.72;5034152;28;20091;-72
2021/05/25 03:28:13;;;;;;;7.80;4.13;;;;;;;16.45;76.85;101086.97;5034372;28;20132;-72
2021/05/25 03:30:39;;;;;;;10.90;4.05;;;;;;;16.38;77.38;101085.06;5033959;28;20053;-73
2021/05/25 03:33:05;;;;;;;8.10;4.15;;;;;;;16.43;77.11;101084.31;5034074;28;20178;-72
2021/05/25 03:35:31;;;;;;;9.27;4.28;;;;;;;16.37;77.25;101072.88;5034123;28;20029;-73
2021/05/25 03:37:57;;;;;;;7.75;3.58;;;;;;;16.48;76.82;101084.41;5034481;28;20394;-70
2021/05/25 03:40:22;;;;;;;7.93;4.40;;;;;;;16.54;76.66;101094.13;5033973;28;20017;-70
2021/05/25 03:42:51;;;;;;;6.95;4.28;;;;;;;16.66;76.34;101091.78;5033891;28;20041;-70
2021/05/25 03:45:18;;;;;;;7.57;3.85;;;;;;;16.67;76.15;101096.13;5015545;28;20120;-73
2021/05/25 03:47:44;;;;;;;5.65;3.13;;;;;;;16.12;76.79;101007.19;5016104;28;20029;-70
2021/05/25 03:50:11;;;;;;;6.32;3.47;;;;;;;16.62;77.05;101080.41;5033607;28;20036;-74
2021/05/25 03:52:42;;;;;;;4.60;3.33;;;;;;;16.67;77.04;101077.88;5016259;28;20032;-68
2021/05/25 03:55:19;;;;;;;6.18;3.80;;;;;;;16.19;77.30;101001.25;5015664;28;20491;-69
2021/05/25 04:00:29;;;;;;;5.80;4.03;;;;;;;16.66;78.03;101071.78;5032556;28;20041;-74
2021/05/25 04:02:54;;;;;;;6.47;3.60;;;;;;;16.69;77.60;101072.72;5009732;28;20029;-73
2021/05/25 04:05:20;;;;;;;7.65;4.05;;;;;;;16.78;77.65;101084.19;5016109;28;20034;-73
2021/05/25 04:07:45;;;;;;;8.75;3.67;;;;;;;16.76;77.80;101087.63;5033765;28;20570;-73
2021/05/25 04:10:11;;;;;;;6.10;4.20;;;;;;;16.75;77.58;101086.75;5033588;28;20053;-74
2021/05/25 04:12:37;;;;;;;6.15;3.70;;;;;;;16.29;77.07;101012.78;5032566;28;20038;-73
2021/05/25 04:15:02;;;;;;;7.18;4.45;;;;;;;16.24;78.29;101027.44;5033536;28;20104;-72
2021/05/25 04:17:28;;;;;;;8.35;3.90;;;;;;;16.65;78.41;101088.28;5033774;28;20053;-73
2021/05/25 04:19:53;;;;;;;6.82;4.20;;;;;;;16.44;78.07;101025.25;5033531;28;20032;-74
2021/05/25 04:22:19;;;;;;;6.32;4.13;;;;;;;16.76;77.78;101092.84;5030996;28;20120;-71
2021/05/25 04:24:44;;;;;;;6.05;3.95;;;;;;;16.76;78.22;101100.66;5031263;28;20045;-74
2021/05/25 04:27:10;;;;;;;7.47;4.45;;;;;;;16.83;78.48;101105.16;5030901;28;20048;-73
2021/05/25 04:29:35;;;;;;;6.20;4.30;;;;;;;16.75;78.58;101099.78;5030960;28;20033;-73
2021/05/25 04:32:01;;;;;;;6.90;4.05;;;;;;;16.85;78.39;101105.19;5031031;28;20052;-73
2021/05/25 04:34:27;;;;;;;10.02;4.32;;;;;;;16.64;78.35;101036.09;5030976;28;20028;-73
2021/05/25 04:36:52;;;;;;;8.25;4.63;;;;;;;16.96;78.68;101088.97;5014129;28;20048;-73
2021/05/25 04:39:20;;;;;;;6.18;3.72;;;;;;;17.08;79.25;101105.72;5013941;28;20120;-73
2021/05/25 04:41:46;;;;;;;7.75;4.25;;;;;;;17.06;78.94;101112.63;5014224;28;20253;-72
2021/05/25 04:44:12;;;;;;;6.80;4.40;;;;;;;17.07;79.30;101111.78;5030776;28;20108;-73
2021/05/25 04:46:38;;;;;;;9.70;4.18;;;;;;;17.16;79.43;101106.75;5013993;28;20036;-73
2021/05/25 04:49:03;;;;;;;7.10;4.25;;;;;;;17.22;78.94;101096.44;5014118;28;20034;-72
2021/05/25 04:51:28;;;;;;;10.38;4.03;;;;;;;17.27;78.38;101089.59;5014262;28;20507;-73
2021/05/25 04:53:54;;;;;;;6.00;3.50;;;;;;;17.42;78.09;101088.09;5032313;28;20065;-73
2021/05/25 04:56:20;;;;;;;6.63;3.50;;;;;;;17.38;77.43;101057.59;5033098;28;20095;-71
2021/05/25 04:58:46;;;;;;;17.98;4.15;;;;;;;17.58;77.66;101098.00;5032912;28;20025;-71
2021/05/25 05:01:11;;;;;;;7.00;3.22;;;;;;;17.75;76.11;101097.41;5032477;28;20087;-71
2021/05/25 05:03:37;;;;;;;8.65;4.30;;;;;;;17.74;76.48;101098.25;5032839;28;20048;-72
2021/05/25 05:06:02;;;;;;;8.85;3.60;;;;;;;17.82;75.62;101094.06;5032665;28;20029;-72
2021/05/25 05:08:28;;;;;;;10.82;3.30;;;;;;;17.46;75.58;101043.81;5032488;28;20567;-72
2021/05/25 05:10:53;;;;;;;7.60;2.95;;;;;;;17.78;75.37;101100.97;5032541;28;20025;-72
2021/05/25 05:13:19;;;;;;;6.53;2.88;;;;;;;17.92;75.87;101095.09;5032456;28;20052;-72
2021/05/25 05:15:44;;;;;;;7.00;3.33;;;;;;;17.93;75.00;101084.66;5032296;28;20060;-72
2021/05/25 05:18:10;;;;;;;7.35;2.95;;;;;;;17.65;74.79;101033.69;5032647;28;20049;-73
2021/05/25 05:20:35;;;;;;;6.05;3.05;;;;;;;17.74;74.73;101031.22;5032297;28;20096;-72
2021/05/25 05:23:01;;;;;;;16.88;4.80;;;;;;;18.23;74.20;101093.88;5032288;28;20048;-71
2021/05/25 05:25:27;;;;;;;14.13;4.80;;;;;;;18.37;74.31;101096.69;5031987;28;20022;-71
2021/05/25 05:27:53;;;;;;;10.50;3.13;;;;;;;18.32;73.33;101100.97;5032367;28;20025;-72
2021/05/25 05:30:18;;;;;;;12.40;3.90;;;;;;;18.38;72.52;101102.78;5032239;28;20025;-71
2021/05/25 05:32:44;;;;;;;8.00;2.88;;;;;;;18.38;73.03;101100.16;5032640;28;20112;-71
2021/05/25 05:35:10;;;;;;;10.82;4.30;;;;;;;18.11;73.55;101042.28;5031907;28;20029;-71
2021/05/25 05:37:35;;;;;;;20.27;5.53;;;;;;;18.49;71.87;101087.28;5031948;28;20507;-71
2021/05/25 05:40:03;;;;;;;19.52;5.60;;;;;;;18.71;71.64;101098.91;5010021;28;20081;-73
2021/05/25 05:42:28;;;;;;;15.57;5.88;;;;;;;18.91;70.50;101081.75;5009573;28;20046;-71
2021/05/25 05:44:54;;;;;;;6.90;2.13;;;;;;;18.99;67.74;101094.97;5009861;28;20052;-70
2021/05/25 05:47:19;;;;;;;6.20;2.28;;;;;;;19.06;68.55;101095.91;5010078;28;20519;-72
2021/05/25 05:49:45;;;;;;;4.78;2.35;;;;;;;19.18;69.03;101077.72;5010044;28;20542;-71
2021/05/25 05:52:10;;;;;;;5.28;2.63;;;;;;;19.38;68.54;101103.25;5010000;28;20527;-71
2021/05/25 05:54:36;;;;;;;8.70;2.60;;;;;;;19.42;69.94;101099.78;4993531;28;20045;-71
2021/05/25 05:57:02;;;;;;;4.72;2.20;;;;;;;19.55;67.23;101101.69;5009638;28;20185;-71
2021/05/25 05:59:27;;;;;;;8.77;2.35;;;;;;;19.64;67.79;101089.53;5009984;28;20191;-71
2021/05/25 06:01:53;;;;;;;7.35;2.22;;;;;;;19.61;67.83;101089.50;5009895;28;20034;-71
2021/05/25 06:04:19;;;;;;;9.32;2.20;;;;;;;19.21;66.81;101037.63;5009533;28;20033;-71
2021/05/25 06:06:45;;;;;;;10.52;2.00;;;;;;;19.12;66.87;101033.16;5009225;28;20034;-71
2021/05/25 06:09:10;;;;;;;7.43;2.13;;;;;;;19.47;67.88;101110.31;5009635;28;20087;-71
2021/05/25 06:11:36;;;;;;;11.50;2.17;;;;;;;19.27;67.79;101076.06;5025831;28;20049;-72
2021/05/25 06:14:01;;;;;;;5.22;2.08;;;;;;;19.44;68.43;101105.94;5031298;28;20033;-72
2021/05/25 06:16:31;;;;;;;6.65;2.08;;;;;;;19.63;64.59;101098.25;5031426;28;20038;-72
2021/05/25 06:18:56;;;;;;;10.73;2.30;;;;;;;19.68;66.33;101092.19;5031555;28;20478;-72
2021/05/25 06:21:21;;;;;;;7.53;2.13;;;;;;;19.96;66.09;101092.47;5031502;28;20025;-72
2021/05/25 06:23:47;;;;;;;5.15;2.30;;;;;;;20.20;63.10;101093.53;5031794;28;20029;-71
2021/05/25 06:26:12;;;;;;;4.35;2.00;;;;;;;20.11;65.88;101078.63;5031666;28;20495;-71
2021/05/25 06:28:38;;;;;;;2.67;2.00;;;;;;;20.12;65.10;101089.97;5030411;28;20030;-71
2021/05/25 06:31:03;;;;;;;5.70;2.47;;;;;;;20.21;63.83;101082.16;5031557;28;20053;-69
2021/05/25 06:33:29;;;;;;;3.88;2.03;;;;;;;20.36;63.87;101092.75;5031397;28;20108;-71
2021/05/25 06:35:55;;;;;;;6.47;2.40;;;;;;;20.43;63.81;101077.94;5031028;28;20484;-72
2021/05/25 06:38:20;;;;;;;5.28;2.30;;;;;;;20.51;62.24;101085.84;5030907;28;20061;-72
2021/05/25 06:40:46;;;;;;;7.10;2.30;;;;;;;20.58;61.11;101077.16;5030299;28;20116;-72
2021/05/25 06:43:12;;;;;;;7.22;2.08;;;;;;;20.75;61.55;101079.91;5030910;28;20104;-72
2021/05/25 06:45:38;;;;;;;3.03;2.20;;;;;;;20.65;61.99;101073.69;5030869;28;20022;-72
2021/05/25 06:48:04;;;;;;;4.65;2.20;;;;;;;20.72;62.47;101071.13;5031056;28;20030;-72
2021/05/25 06:50:30;;;;;;;8.32;2.90;;;;;;;20.72;61.74;101072.00;4996226;28;20080;-71
2021/05/25 06:52:57;;;;;;;8.57;3.10;;;;;;;20.73;62.15;101073.75;5031066;28;20034;-74
2021/05/25 06:55:22;;;;;;;6.30;2.92;;;;;;;20.79;61.71;101073.78;5031327;28;20045;-72
2021/05/25 06:57:48;;;;;;;7.82;2.67;;;;;;;20.85;61.59;101054.56;5031217;28;20043;-73
2021/05/25 07:00:15;;;;;;;12.77;3.40;;;;;;;20.91;61.92;101061.56;5031408;28;20503;-72
2021/05/25 07:02:40;;;;;;;12.07;3.60;;;;;;;20.85;61.39;101059.81;5031027;28;20538;-71
2021/05/25 07:05:08;;;;;;;9.15;3.65;;;;;;;20.85;61.39;101047.56;5030910;28;20117;-71
2021/05/25 07:07:34;;;;;;;16.50;5.80;;;;;;;20.96;60.54;101050.25;5030514;28;20071;-71
2021/05/25 07:10:00;;;;;;;19.00;4.68;;;;;;;21.23;59.17;101042.44;5031079;28;20053;-71
2021/05/25 07:12:26;;;;;;;7.10;2.67;;;;;;;21.39;62.15;101051.22;5030245;28;20061;-71
2021/05/25 07:14:51;;;;;;;10.70;2.95;;;;;;;21.40;59.19;101052.97;5030283;28;20067;-72
2021/05/25 07:17:17;;;;;;;9.85;3.20;;;;;;;21.47;58.17;101047.72;5030802;28;20033;-71
2021/05/25 07:19:43;;;;;;;11.07;3.55;;;;;;;21.53;59.27;101046.84;5030417;28;20120;-72
2021/05/25 07:22:08;;;;;;;9.30;4.00;;;;;;;21.65;57.95;101046.88;5030811;28;20037;-73
2021/05/25 07:24:34;;;;;;;12.75;3.30;;;;;;;21.79;57.75;101039.03;5032370;28;20036;-71
2021/05/25 07:27:00;;;;;;;16.55;3.80;;;;;;;21.96;56.70;101032.88;5034351;28;20433;-72
2021/05/25 07:29:26;;;;;;;14.02;4.65;;;;;;;22.10;59.51;101051.25;5034741;28;20026;-71
2021/05/25 07:31:51;;;;;;;25.85;5.63;;;;;;;22.02;57.36;101047.75;5034580;28;20029;-71
2021/05/25 07:34:18;;;;;;;19.00;4.85;;;;;;;22.02;57.91;101034.59;5033871;28;20510;-72
2021/05/25 07:36:43;;;;;;;14.48;5.03;;;;;;;22.22;54.36;101045.97;5033178;28;20108;-73
2021/05/25 07:39:09;;;;;;;19.48;5.30;;;;;;;21.85;56.59;100974.19;5034562;28;20112;-71
2021/05/25 07:41:35;;;;;;;14.10;4.18;;;;;;;21.58;57.00;100952.28;5034129;28;20037;-72
2021/05/25 07:44:00;;;;;;;11.20;3.88;;;;;;;22.06;57.28;101039.84;5036945;28;20021;-74
2021/05/25 07:46:27;;;;;;;12.32;3.35;;;;;;;22.12;56.09;101045.09;5035321;28;20064;-72
2021/05/25 07:48:53;;;;;;;7.97;3.00;;;;;;;22.07;55.84;101045.97;5029808;28;20419;-74
2021/05/25 07:51:19;;;;;;;17.45;4.22;;;;;;;22.14;56.65;101031.94;5025858;28;20500;-71
2021/05/25 07:53:45;;;;;;;8.07;3.20;;;;;;;22.20;57.36;101016.16;5033580;28;20407;-74
2021/05/25 07:56:11;;;;;;;8.20;3.22;;;;;;;22.25;55.53;100995.13;5034164;28;20021;-70
2021/05/25 07:58:36;;;;;;;9.90;3.45;;;;;;;22.41;56.60;101035.44;5034051;28;20030;-70
2021/05/25 08:01:02;;;;;;;12.80;3.08;;;;;;;22.38;55.57;101051.22;5034269;28;20029;-72
2021/05/25 08:03:28;;;;;;;7.90;2.45;;;;;;;22.06;54.41;101000.41;5034157;28;20083;-73
2021/05/25 08:05:54;;;;;;;7.20;2.60;;;;;;;22.38;57.53;101054.75;5034263;28;20067;-72
2021/05/25 08:08:20;;;;;;;9.98;2.72;;;;;;;22.34;56.32;101026.63;5033892;28;20068;-72
2021/05/25 08:10:45;;;;;;;8.27;2.85;;;;;;;22.42;55.91;101047.72;5033868;28;20069;-72
2021/05/25 08:13:11;;;;;;;15.38;3.15;;;;;;;22.54;55.34;101052.06;5033775;28;20036;-72
2021/05/25 08:15:39;;;;;;;10.20;2.90;;;;;;;22.71;53.79;101029.16;5016016;28;20517;-73
2021/05/25 08:20:31;;;;;;;10.95;3.17;;;;;;;23.03;52.18;101025.50;5033296;28;20038;-74
2021/05/25 08:22:58;;;;;;;8.98;2.53;;;;;;;23.23;51.62;101027.19;5033252;28;20045;-71
2021/05/25 08:25:27;;;;;;;12.48;2.65;;;;;;;23.41;51.40;101019.16;5033792;28;20087;-70
2021/05/25 08:27:54;;;;;;;10.65;2.88;;;;;;;23.52;51.56;100999.75;5033524;28;20392;-71
2021/05/25 08:30:25;;;;;;;11.35;3.15;;;;;;;23.75;50.43;101007.44;5026607;28;20558;-73
2021/05/25 08:32:52;;;;;;;9.50;2.72;;;;;;;23.74;51.72;101009.19;5033298;28;20091;-72
2021/05/25 08:35:19;;;;;;;11.77;2.67;;;;;;;23.78;53.72;100993.38;5032473;28;20121;-73
2021/05/25 08:37:48;;;;;;;9.35;2.72;;;;;;;23.71;50.53;101003.97;5015104;28;20052;-72
2021/05/25 08:40:14;;;;;;;7.00;2.35;;;;;;;23.43;49.73;100930.41;5048675;28;20021;-72
2021/05/25 08:42:40;;;;;;;13.57;2.80;;;;;;;23.95;50.47;100990.59;5032895;28;20029;-72
2021/05/25 08:45:10;;;;;;;8.57;2.78;;;;;;;23.98;52.10;100995.84;5032842;28;20117;-73
2021/05/25 08:47:35;;;;;;;7.20;2.42;;;;;;;23.93;49.55;100987.09;5033148;28;20025;-72
2021/05/25 08:50:04;;;;;;;8.48;2.20;;;;;;;24.06;49.93;100992.22;5029361;28;20044;-71
2021/05/25 08:52:30;;;;;;;6.32;1.90;;;;;;;24.20;48.85;100981.53;5032637;28;20026;-71
2021/05/25 08:54:56;;;;;;;7.38;2.30;;;;;;;24.25;48.68;100978.84;5032695;28;20037;-72
2021/05/25 08:57:22;;;;;;;6.90;2.17;;;;;;;24.39;48.44;100983.94;5033258;28;20037;-71
2021/05/25 08:59:48;;;;;;;5.32;2.20;;;;;;;24.30;48.78;100981.41;5031009;28;20079;-74
2021/05/25 09:02:14;;;;;;;7.15;2.90;;;;;;;24.41;51.46;100970.72;5032680;28;20038;-76
2021/05/25 09:04:58;;;;;;;6.03;2.50;;;;;;;24.57;49.72;100980.19;5032606;28;20025;-75
2021/05/25 09:07:46;;;;;;;7.18;2.35;;;;;;;24.68;47.70;100983.59;5031172;28;20042;-75
2021/05/25 09:10:32;;;;;;;6.32;3.03;;;;;;;24.75;48.81;100972.94;5032115;28;20038;-77
2021/05/25 09:12:58;;;;;;;6.32;2.55;;;;;;;24.83;48.14;100971.06;5032106;28;20453;-73
2021/05/25 09:15:35;;;;;;;6.47;2.45;;;;;;;24.75;47.78;100944.78;5032372;28;20022;-73
2021/05/25 09:18:05;;;;;;;6.45;2.22;;;;;;;25.03;47.44;100947.91;5033600;28;20037;-74
2021/05/25 09:20:43;;;;;;;8.48;2.70;;;;;;;25.34;46.78;100967.66;5033492;28;20117;-72
2021/05/25 09:23:10;;;;;;;11.38;3.15;;;;;;;25.55;46.54;100969.09;5024139;28;20036;-73
2021/05/25 09:25:45;;;;;;;10.40;3.10;;;;;;;25.72;48.00;100967.91;4995635;28;20514;-74
2021/05/25 09:28:12;;;;;;;6.22;2.25;;;;;;;25.40;46.62;100950.88;5009988;28;20068;-74
2021/05/25 09:30:39;;;;;;;5.93;2.42;;;;;;;25.62;46.96;100965.44;5012440;28;20073;-74
2021/05/25 09:33:08;;;;;;;8.40;2.38;;;;;;;25.55;47.03;100920.66;5012162;28;20599;-75
2021/05/25 09:35:36;;;;;;;6.78;2.30;;;;;;;25.61;44.94;100902.00;5012110;28;20407;-75
2021/05/25 09:38:27;;;;;;;2.92;1.90;;;;;;;26.00;43.33;100947.97;5007620;28;20107;-75
2021/05/25 09:40:58;;;;;;;5.65;2.05;;;;;;;26.13;43.10;100955.69;5030948;28;20018;-75
2021/05/25 09:43:27;;;;;;;6.40;2.10;;;;;;;26.27;42.75;100955.41;5031658;28;20033;-75
2021/05/25 09:45:55;;;;;;;4.95;2.13;;;;;;;26.40;44.80;100950.75;5029248;28;20049;-79
2021/05/25 09:48:48;;;;;;;3.88;2.13;;;;;;;26.57;43.63;100945.09;5030331;28;20061;-73
2021/05/25 09:51:26;;;;;;;6.47;2.00;;;;;;;26.76;43.30;100948.22;4978779;28;20054;-73
2021/05/25 09:53:52;;;;;;;5.53;2.30;;;;;;;26.71;42.03;100926.25;4971972;28;20034;-72
2021/05/25 09:56:31;;;;;;;2.80;1.90;;;;;;;26.76;41.66;100935.84;4970756;28;20047;-75
2021/05/25 09:59:00;;;;;;;3.75;1.90;;;;;;;26.95;41.13;100925.72;4979112;28;20511;-75
2021/05/25 10:01:38;;;;;;;5.13;2.03;;;;;;;27.13;40.54;100927.03;4981134;28;20035;-75
2021/05/25 10:04:11;;;;;;;3.35;1.80;;;;;;;27.20;39.78;100930.38;4970904;28;20034;-74
2021/05/25 10:06:44;;;;;;;5.47;2.15;;;;;;;27.33;42.21;100928.31;4970131;28;20505;-72
2021/05/25 10:09:12;;;;;;;8.18;2.28;;;;;;;27.42;40.27;100911.31;4970105;28;20089;-73
2021/05/25 10:11:45;;;;;;;3.13;1.85;;;;;;;27.57;40.41;100915.34;4970457;28;20106;-74
2021/05/25 10:14:11;;;;;;;3.10;1.80;;;;;;;27.59;39.74;100927.66;4970508;28;20536;-73
2021/05/25 10:16:40;;;;;;;4.97;2.17;;;;;;;27.30;38.70;100912.47;4968764;28;20047;-73
2021/05/25 10:21:38;;;;;;;5.47;1.73;;;;;;;27.56;38.23;100898.53;4970394;28;20057;-74
2021/05/25 10:24:04;;;;;;;6.30;1.83;;;;;;;27.53;38.68;100850.91;4973073;28;20078;-74
2021/05/25 10:26:32;;;;;;;4.43;1.73;;;;;;;27.67;38.17;100837.25;4980603;28;20042;-74
2021/05/25 10:29:02;;;;;;;3.70;1.90;;;;;;;28.16;39.01;100892.50;5012491;28;20045;-73
2021/05/25 10:31:43;;;;;;;3.55;2.00;;;;;;;28.13;38.76;100864.25;5030097;28;20083;-72
2021/05/25 10:34:13;;;;;;;5.97;1.90;;;;;;;28.44;38.95;100881.91;5030475;28;20029;-72
2021/05/25 10:36:43;;;;;;;3.88;1.70;;;;;;;28.48;37.02;100880.88;5032589;28;20111;-73
2021/05/25 10:39:08;;;;;;;;;;;;;;;28.52;36.50;100879.00;5022097;28;20093;-74
2021/05/25 10:41:36;;;;;;;7.55;1.90;;;;;;;28.09;37.31;100809.53;5003031;28;20356;-74
2021/05/25 10:44:02;;;;;;;2.97;1.92;;;;;;;28.23;36.95;100846.28;5021771;28;20511;-72
2021/05/25 10:46:31;;;;;;;3.83;1.63;;;;;;;28.45;36.87;100861.53;5002534;28;20026;-74
2021/05/25 10:49:12;;;;;;;2.40;1.73;;;;;;;28.51;37.01;100861.34;5019723;28;20569;-73
2021/05/25 10:51:44;;;;;;;2.75;1.73;;;;;;;28.72;36.70;100862.47;5030346;28;20079;-71
2021/05/25 10:54:27;;;;;;;4.05;2.03;;;;;;;28.61;37.23;100851.28;5011792;28;20567;-73
2021/05/25 10:56:54;;;;;;;6.03;1.95;;;;;;;28.83;39.23;100841.72;5028647;28;20407;-74
2021/05/25 10:59:21;;;;;;;3.45;1.90;;;;;;;29.05;37.11;100851.63;5029026;28;20129;-74
2021/05/25 11:02:04;;;;;;;3.60;1.98;;;;;;;29.13;36.53;100846.91;5034121;28;20039;-73
2021/05/25 11:04:37;;;;;;;2.92;1.83;;;;;;;28.99;35.69;100841.22;5033647;28;20100;-73
2021/05/25 11:07:41;;;;;;;7.43;2.03;;;;;;;28.94;35.93;100843.16;5032526;28;20083;-74
2021/05/25 11:10:58;;;;;;;3.10;1.80;;;;;;;29.27;37.94;100851.75;4945232;29;20035;-74
2021/05/25 11:13:29;;;;;;;3.25;1.80;;;;;;;29.53;37.84;100842.88;4877353;29;20033;-74
2021/05/25 11:16:22;;;;;;;3.30;1.80;;;;;;;28.68;37.18;100781.13;4862416;29;20047;-73
2021/05/25 11:18:55;;;;;;;4.85;2.03;;;;;;;29.23;36.94;100839.47;4874850;29;20064;-73
2021/05/25 11:24:35;;;;;;;3.97;1.77;;;;;;;29.02;37.74;100794.13;4878144;29;20057;-75
2021/05/25 11:27:06;;;;;;;2.10;1.73;;;;;;;29.33;35.81;100774.44;4877575;29;20526;-74
2021/05/25 11:29:48;;;;;;;2.33;1.67;;;;;;;29.97;35.62;100820.00;4863907;29;20037;-71
2021/05/25 11:32:16;;;;;;;2.45;1.63;;;;;;;30.17;34.96;100816.56;4876634;29;20028;-72
2021/05/25 11:34:43;;;;;;;4.68;1.80;;;;;;;30.27;34.47;100806.41;4877601;29;20165;-72
2021/05/25 11:37:14;;;;;;;3.03;1.95;;;;;;;30.08;34.77;100784.97;4877823;29;20035;-71